createdAt,value
2018-11-05T00:02:26.054Z,14.33
2018-11-05T00:04:54.487Z,14.97
2018-11-05T00:07:22.847Z,15.27
2018-11-05T00:09:51.168Z,14.83
2018-11-05T00:12:19.904Z,15.17
2018-11-05T00:14:48.181Z,14.30
2018-11-05T00:17:16.929Z,14.87
2018-11-05T00:19:45.284Z,14.47
2018-11-05T00:22:13.630Z,15.07
2018-11-05T00:24:42.044Z,15.93
2018-11-05T00:27:10.352Z,16.93
2018-11-05T00:29:39.910Z,16.13
2018-11-05T00:32:08.407Z,15.27
2018-11-05T00:34:36.680Z,16.50
2018-11-05T00:37:05.534Z,16.63
2018-11-05T00:39:33.914Z,16.10
2018-11-05T00:42:02.396Z,15.87
2018-11-05T00:44:30.690Z,15.87
2018-11-05T00:46:59.057Z,15.97
2018-11-05T00:49:27.308Z,16.20
2018-11-05T00:51:55.580Z,16.50
2018-11-05T00:54:23.827Z,17.17
2018-11-05T00:56:52.432Z,16.87
2018-11-05T00:59:20.718Z,17.13
2018-11-05T01:01:48.959Z,16.77
2018-11-05T01:04:17.377Z,16.87
2018-11-05T01:06:46.496Z,16.63
2018-11-05T01:09:14.852Z,17.47
2018-11-05T01:11:43.169Z,17.77
2018-11-05T01:14:11.480Z,17.93
2018-11-05T01:16:39.822Z,17.90
2018-11-05T01:19:08.120Z,18.20
2018-11-05T01:21:36.710Z,19.00
2018-11-05T01:24:05.370Z,17.03
2018-11-05T01:26:33.762Z,18.00
2018-11-05T01:29:02.133Z,16.87
2018-11-05T01:31:30.396Z,16.20
2018-11-05T01:33:58.759Z,17.97
2018-11-05T01:36:27.011Z,17.67
2018-11-05T01:38:55.455Z,16.73
2018-11-05T01:41:23.812Z,17.93
2018-11-05T01:43:52.253Z,17.47
2018-11-05T01:46:20.492Z,16.93
2018-11-05T01:48:48.807Z,17.77
2018-11-05T01:51:17.083Z,17.33
2018-11-05T01:53:45.509Z,18.53
2018-11-05T01:56:13.798Z,17.80
2018-11-05T01:58:42.085Z,17.60
2018-11-05T02:01:10.354Z,15.87
2018-11-05T02:03:38.680Z,15.40
2018-11-05T02:06:06.949Z,16.57
2018-11-05T02:08:35.211Z,17.53
2018-11-05T02:11:03.511Z,17.20
2018-11-05T02:13:31.855Z,17.43
2018-11-05T02:16:00.062Z,18.97
2018-11-05T02:18:28.327Z,18.77
2018-11-05T02:20:56.612Z,18.80
2018-11-05T02:23:24.906Z,18.63
2018-11-05T02:25:53.230Z,17.80
2018-11-05T02:28:21.497Z,18.37
2018-11-05T02:30:49.802Z,17.50
2018-11-05T02:33:18.088Z,18.77
2018-11-05T02:35:46.392Z,18.33
2018-11-05T02:38:14.786Z,17.40
2018-11-05T02:40:43.088Z,18.03
2018-11-05T02:43:11.419Z,18.30
2018-11-05T02:45:39.719Z,17.83
2018-11-05T02:48:08.571Z,17.13
2018-11-05T02:50:36.840Z,17.00
2018-11-05T02:53:05.517Z,17.87
2018-11-05T02:55:33.783Z,18.77
2018-11-05T02:58:02.035Z,16.77
2018-11-05T03:00:30.367Z,16.97
2018-11-05T03:02:58.744Z,17.23
2018-11-05T03:05:27.041Z,15.80
2018-11-05T03:07:56.078Z,17.23
2018-11-05T03:10:24.342Z,16.83
2018-11-05T03:12:52.673Z,15.73
2018-11-05T03:15:21.076Z,16.03
2018-11-05T03:17:49.347Z,16.03
2018-11-05T03:20:17.747Z,15.73
2018-11-05T03:22:46.332Z,16.53
2018-11-05T03:25:14.645Z,15.30
2018-11-05T03:27:42.935Z,17.20
2018-11-05T03:30:14.088Z,16.60
2018-11-05T03:32:42.733Z,16.53
2018-11-05T03:35:12.106Z,17.33
2018-11-05T03:37:41.443Z,16.87
2018-11-05T03:40:10.599Z,15.37
2018-11-05T03:42:39.289Z,16.00
2018-11-05T03:45:08.890Z,15.33
2018-11-05T03:47:37.165Z,16.07
2018-11-05T03:50:07.912Z,15.80
2018-11-05T03:52:36.379Z,15.53
2018-11-05T03:55:05.028Z,14.93
2018-11-05T03:57:33.752Z,17.67
2018-11-05T04:00:02.141Z,16.63
2018-11-05T04:02:30.432Z,17.77
2018-11-05T04:04:58.696Z,18.30
2018-11-05T04:07:27.042Z,17.30
2018-11-05T04:09:55.512Z,16.27
2018-11-05T04:12:23.813Z,16.07
2018-11-05T04:14:52.085Z,18.50
2018-11-05T04:17:20.383Z,18.13
2018-11-05T04:19:48.748Z,17.07
2018-11-05T04:22:17.105Z,17.97
2018-11-05T04:24:45.423Z,18.47
2018-11-05T04:27:13.720Z,17.70
2018-11-05T04:29:42.023Z,17.13
2018-11-05T04:32:10.435Z,17.03
2018-11-05T04:34:38.788Z,18.20
2018-11-05T04:37:07.236Z,18.33
2018-11-05T04:39:35.524Z,19.60
2018-11-05T04:42:03.817Z,19.40
2018-11-05T04:44:32.052Z,18.83
2018-11-05T04:47:00.324Z,19.00
2018-11-05T04:49:28.560Z,18.03
2018-11-05T04:51:56.848Z,17.83
2018-11-05T04:54:25.120Z,18.70
2018-11-05T04:56:53.399Z,18.63
2018-11-05T04:59:21.684Z,19.23
2018-11-05T05:01:50.128Z,19.33
2018-11-05T05:04:18.423Z,18.20
2018-11-05T05:06:46.836Z,18.43
2018-11-05T05:09:15.117Z,18.53
2018-11-05T05:11:43.430Z,18.27
2018-11-05T05:14:11.704Z,17.80
2018-11-05T05:16:40.316Z,20.70
2018-11-05T05:19:08.596Z,19.07
2018-11-05T05:21:37.054Z,19.70
2018-11-05T05:24:05.568Z,19.07
2018-11-05T05:26:33.932Z,19.70
2018-11-05T05:29:02.360Z,20.67
2018-11-05T05:31:30.808Z,18.13
2018-11-05T05:33:59.105Z,16.23
2018-11-05T05:36:27.356Z,16.50
2018-11-05T05:38:55.845Z,17.73
2018-11-05T05:41:24.181Z,16.03
2018-11-05T05:43:52.368Z,15.53
2018-11-05T05:46:20.767Z,15.13
2018-11-05T05:48:49.030Z,15.37
2018-11-05T05:51:17.448Z,15.13
2018-11-05T05:53:45.743Z,14.27
2018-11-05T05:56:13.984Z,13.63
2018-11-05T05:58:42.268Z,14.33
2018-11-05T06:01:10.707Z,13.60
2018-11-05T06:03:38.994Z,13.20
2018-11-05T06:06:07.761Z,13.60
2018-11-05T06:08:36.857Z,13.80
2018-11-05T06:11:05.413Z,15.43
2018-11-05T06:13:33.867Z,19.23
2018-11-05T06:16:02.298Z,15.90
2018-11-05T06:18:30.484Z,17.07
2018-11-05T06:20:58.763Z,17.87
2018-11-05T06:23:27.099Z,17.00
2018-11-05T06:25:55.478Z,18.67
2018-11-05T06:28:23.891Z,17.27
2018-11-05T06:30:52.177Z,16.20
2018-11-05T06:33:20.455Z,16.80
2018-11-05T06:35:48.795Z,16.43
2018-11-05T06:38:17.175Z,16.07
2018-11-05T06:40:45.763Z,16.40
2018-11-05T06:43:14.096Z,16.50
2018-11-05T06:45:42.390Z,16.33
2018-11-05T06:48:10.693Z,16.83
2018-11-05T06:50:38.937Z,16.77
2018-11-05T06:53:07.297Z,16.50
2018-11-05T06:55:35.682Z,14.87
2018-11-05T06:58:03.985Z,15.10
2018-11-05T07:00:32.326Z,15.33
2018-11-05T07:03:00.624Z,14.77
2018-11-05T07:05:30.202Z,15.13
2018-11-05T07:07:58.499Z,14.30
2018-11-05T07:10:27.532Z,14.07
2018-11-05T07:12:55.753Z,13.93
2018-11-05T07:15:24.049Z,13.97
2018-11-05T07:17:52.391Z,13.30
2018-11-05T07:20:21.673Z,13.77
2018-11-05T07:22:50.946Z,12.50
2018-11-05T07:25:19.316Z,14.07
2018-11-05T07:27:47.636Z,13.63
2018-11-05T07:30:18.365Z,13.40
2018-11-05T07:32:47.345Z,13.10
2018-11-05T07:35:16.030Z,12.90
2018-11-05T07:37:44.502Z,12.10
2018-11-05T07:40:14.245Z,13.30
2018-11-05T07:42:42.690Z,12.70
2018-11-05T07:45:19.678Z,13.07
2018-11-05T07:47:48.359Z,13.53
2018-11-05T07:50:17.564Z,13.40
2018-11-05T07:52:45.857Z,12.83
2018-11-05T07:55:15.348Z,12.80
2018-11-05T07:57:44.818Z,13.17
2018-11-05T08:00:22.078Z,13.87
2018-11-05T08:02:51.935Z,14.63
2018-11-05T08:05:21.157Z,13.47
2018-11-05T08:07:49.912Z,13.37
2018-11-05T08:10:18.196Z,13.80
2018-11-05T08:12:46.738Z,14.37
2018-11-05T08:15:16.510Z,13.67
2018-11-05T08:17:46.087Z,13.73
2018-11-05T08:20:14.443Z,13.17
2018-11-05T08:22:42.789Z,13.57
2018-11-05T08:25:12.049Z,12.40
2018-11-05T08:27:40.468Z,13.30
2018-11-05T08:30:15.340Z,13.13
2018-11-05T08:32:43.712Z,11.93
2018-11-05T08:35:12.612Z,12.10
2018-11-05T08:37:41.896Z,11.67
2018-11-05T08:40:16.415Z,12.00
2018-11-05T08:42:45.380Z,11.67
2018-11-05T08:45:15.108Z,12.63
2018-11-05T08:47:43.557Z,13.03
2018-11-05T08:50:14.318Z,12.40
2018-11-05T08:52:42.612Z,13.20
2018-11-05T08:55:14.307Z,13.50
2018-11-05T08:57:43.220Z,13.53
2018-11-05T09:00:15.760Z,13.47
2018-11-05T09:02:44.964Z,14.50
2018-11-05T09:05:13.588Z,13.70
2018-11-05T09:07:42.061Z,13.03
2018-11-05T09:10:10.513Z,14.20
2018-11-05T09:12:38.812Z,13.90
2018-11-05T09:15:08.791Z,13.10
2018-11-05T09:17:37.211Z,13.90
2018-11-05T09:20:06.909Z,13.27
2018-11-05T09:22:35.183Z,12.93
2018-11-05T09:25:03.466Z,14.23
2018-11-05T09:27:31.772Z,14.33
2018-11-05T09:30:00.098Z,13.90
2018-11-05T09:32:28.364Z,12.97
2018-11-05T09:34:56.753Z,12.50
2018-11-05T09:37:25.039Z,13.23
2018-11-05T09:39:53.320Z,12.57
2018-11-05T09:42:21.731Z,13.73
2018-11-05T09:44:50.160Z,13.63
2018-11-05T09:47:18.496Z,12.57
2018-11-05T09:49:46.847Z,13.90
2018-11-05T09:52:15.126Z,12.97
2018-11-05T09:54:43.409Z,12.93
2018-11-05T09:57:11.678Z,12.30
2018-11-05T09:59:39.976Z,12.57
2018-11-05T10:02:08.278Z,12.63
2018-11-05T10:04:36.837Z,12.47
2018-11-05T10:07:05.038Z,12.60
2018-11-05T10:09:33.477Z,12.77
2018-11-05T10:12:01.731Z,12.10
2018-11-05T10:14:30.060Z,12.20
2018-11-05T10:16:58.312Z,12.97
2018-11-05T10:19:26.607Z,12.77
2018-11-05T10:21:54.959Z,12.53
2018-11-05T10:24:23.420Z,12.73
2018-11-05T10:26:51.751Z,13.17
2018-11-05T10:29:20.248Z,12.53
2018-11-05T10:31:48.537Z,12.37
2018-11-05T10:34:16.904Z,12.17
2018-11-05T10:36:45.186Z,13.07
2018-11-05T10:39:13.584Z,13.73
2018-11-05T10:41:41.976Z,15.17
2018-11-05T10:44:10.367Z,14.87
2018-11-05T10:46:38.644Z,14.00
2018-11-05T10:49:06.998Z,14.67
2018-11-05T10:51:35.317Z,15.20
2018-11-05T10:54:03.636Z,14.30
2018-11-05T10:56:32.064Z,13.97
2018-11-05T10:59:00.530Z,14.13
2018-11-05T11:01:34.063Z,14.90
2018-11-05T11:04:07.563Z,13.63
2018-11-05T11:06:35.820Z,12.73
2018-11-05T11:09:05.045Z,12.73
2018-11-05T11:11:33.399Z,13.43
2018-11-05T11:14:01.696Z,12.17
2018-11-05T11:16:29.971Z,11.27
2018-11-05T11:18:58.357Z,11.40
2018-11-05T11:21:26.673Z,11.77
2018-11-05T11:23:55.098Z,11.27
2018-11-05T11:26:23.429Z,12.10
2018-11-05T11:28:51.901Z,11.63
2018-11-05T11:31:20.166Z,11.37
2018-11-05T11:33:48.419Z,12.50
2018-11-05T11:36:16.698Z,11.17
2018-11-05T11:38:44.977Z,12.53
2018-11-05T11:41:13.350Z,11.77
2018-11-05T11:43:41.637Z,11.70
2018-11-05T11:46:09.960Z,12.20
2018-11-05T11:48:38.467Z,11.80
2018-11-05T11:51:07.027Z,11.40
2018-11-05T11:53:35.426Z,11.13
2018-11-05T11:56:03.582Z,11.63
2018-11-05T11:58:32.106Z,11.50
2018-11-05T12:01:00.549Z,11.60
2018-11-05T12:03:28.841Z,10.60
2018-11-05T12:05:57.170Z,10.93
2018-11-05T12:08:25.696Z,10.00
2018-11-05T12:10:53.997Z,10.53
2018-11-05T12:13:22.268Z,9.73
2018-11-05T12:15:50.565Z,9.90
2018-11-05T12:18:18.807Z,10.57
2018-11-05T12:20:47.104Z,10.17
2018-11-05T12:23:15.376Z,10.67
2018-11-05T12:25:43.702Z,11.17
2018-11-05T12:28:12.019Z,11.37
2018-11-05T12:30:40.411Z,11.17
2018-11-05T12:33:08.712Z,11.83
2018-11-05T12:35:37.128Z,12.00
2018-11-05T12:38:06.003Z,11.37
2018-11-05T12:40:34.331Z,10.83
2018-11-05T12:43:02.802Z,11.60
2018-11-05T12:45:31.114Z,11.10
2018-11-05T12:47:59.514Z,10.87
2018-11-05T12:50:27.880Z,11.60
2018-11-05T12:52:56.190Z,11.80
2018-11-05T12:55:41.564Z,11.20
2018-11-05T12:58:10.504Z,11.17
2018-11-05T13:00:38.803Z,11.40
2018-11-05T13:03:07.274Z,11.47
2018-11-05T13:05:35.682Z,11.23
2018-11-05T13:08:04.237Z,11.83
2018-11-05T13:10:35.625Z,12.00
2018-11-05T13:13:04.399Z,11.90
2018-11-05T13:15:32.783Z,11.50
2018-11-05T13:18:01.076Z,11.67
2018-11-05T13:20:29.458Z,11.70
2018-11-05T13:22:57.756Z,11.10
2018-11-05T13:25:26.074Z,11.37
2018-11-05T13:27:54.361Z,11.60
2018-11-05T13:30:22.668Z,10.57
2018-11-05T13:32:51.079Z,11.73
2018-11-05T13:35:20.661Z,10.83
2018-11-05T13:37:49.492Z,10.50
2018-11-05T13:40:19.513Z,10.93
2018-11-05T13:42:48.351Z,11.12
2018-11-05T13:45:17.149Z,10.53
2018-11-05T13:47:46.523Z,10.75
2018-11-05T13:50:15.044Z,11.03
2018-11-05T13:52:43.532Z,10.25
2018-11-05T13:55:13.504Z,10.53
2018-11-05T13:57:43.232Z,10.00
2018-11-05T14:00:13.661Z,9.65
2018-11-05T14:02:42.352Z,11.10
2018-11-05T14:05:11.202Z,10.98
2018-11-05T14:07:39.799Z,10.48
2018-11-05T14:10:12.080Z,9.90
2018-11-05T14:12:40.420Z,9.75
2018-11-05T14:15:08.840Z,10.20
2018-11-05T14:17:37.858Z,9.40
2018-11-05T14:20:07.133Z,9.97
2018-11-05T14:22:35.411Z,9.20
2018-11-05T14:25:03.833Z,9.80
2018-11-05T14:27:32.419Z,9.73
2018-11-05T14:30:02.258Z,9.60
2018-11-05T14:32:30.246Z,9.53
2018-11-05T14:34:58.535Z,9.90
2018-11-05T14:37:26.917Z,9.33
2018-11-05T14:39:55.343Z,8.90
2018-11-05T14:42:23.628Z,8.83
2018-11-05T14:44:52.223Z,8.03
2018-11-05T14:47:20.556Z,8.78
2018-11-05T14:49:49.129Z,8.63
2018-11-05T14:52:17.510Z,9.10
2018-11-05T14:54:45.831Z,9.45
2018-11-05T14:57:14.600Z,8.98
2018-11-05T14:59:42.900Z,10.63
2018-11-05T15:02:16.373Z,10.87
2018-11-05T15:04:44.687Z,10.33
2018-11-05T15:07:12.974Z,11.17
2018-11-05T15:09:41.285Z,10.47
2018-11-05T15:12:09.589Z,10.63
2018-11-05T15:14:37.979Z,10.27
2018-11-05T15:17:07.051Z,10.67
2018-11-05T15:19:35.837Z,9.83
2018-11-05T15:22:03.777Z,10.83
2018-11-05T15:24:32.817Z,10.97
2018-11-05T15:27:01.168Z,10.87
2018-11-05T15:29:29.575Z,11.63
2018-11-05T15:31:57.868Z,11.83
2018-11-05T15:34:26.137Z,11.97
2018-11-05T15:36:54.608Z,12.03
2018-11-05T15:39:22.894Z,12.50
2018-11-05T15:41:51.199Z,11.90
2018-11-05T15:44:19.645Z,11.90
2018-11-05T15:46:47.983Z,13.00
2018-11-05T15:49:16.479Z,12.40
2018-11-05T15:51:45.057Z,12.67
2018-11-05T15:54:13.326Z,13.93
2018-11-05T15:56:44.935Z,13.43
2018-11-05T15:59:13.516Z,13.73
2018-11-05T16:01:41.895Z,13.80
2018-11-05T16:04:10.381Z,13.17
2018-11-05T16:06:38.767Z,13.67
2018-11-05T16:09:08.487Z,14.13
2018-11-05T16:11:36.868Z,13.73
2018-11-05T16:14:05.539Z,13.90
2018-11-05T16:16:34.308Z,14.33
2018-11-05T16:19:02.640Z,13.83
2018-11-05T16:21:30.990Z,14.77
2018-11-05T16:23:59.444Z,14.07
2018-11-05T16:26:27.875Z,14.43
2018-11-05T16:28:56.288Z,15.57
2018-11-05T16:31:24.734Z,15.13
2018-11-05T16:33:53.012Z,14.53
2018-11-05T16:36:21.494Z,15.10
2018-11-05T16:38:49.790Z,15.60
2018-11-05T16:41:18.069Z,16.03
2018-11-05T16:43:46.898Z,16.17
2018-11-05T16:46:15.327Z,16.80
2018-11-05T16:48:43.572Z,16.77
2018-11-05T16:51:11.919Z,16.63
2018-11-05T16:53:45.177Z,16.37
2018-11-05T16:56:13.505Z,16.37
2018-11-05T16:58:41.926Z,16.77
2018-11-05T17:01:10.588Z,17.07
2018-11-05T17:03:38.548Z,17.30
2018-11-05T17:06:06.843Z,17.20
2018-11-05T17:08:35.148Z,17.63
2018-11-05T17:11:03.428Z,17.07
2018-11-05T17:13:31.856Z,17.53
2018-11-05T17:16:00.762Z,17.93
2018-11-05T17:18:29.084Z,18.47
2018-11-05T17:20:59.190Z,18.37
2018-11-05T17:23:27.779Z,18.23
2018-11-05T17:25:56.185Z,19.20
2018-11-05T17:28:24.592Z,19.63
2018-11-05T17:30:52.935Z,18.37
2018-11-05T17:33:21.233Z,18.03
2018-11-05T17:35:49.540Z,18.00
2018-11-05T17:38:18.823Z,17.87
2018-11-05T17:40:47.319Z,17.80
2018-11-05T17:43:15.626Z,18.53
2018-11-05T17:45:43.964Z,17.93
2018-11-05T17:48:12.231Z,19.43
2018-11-05T17:50:40.523Z,20.97
2018-11-05T17:53:08.824Z,19.67
2018-11-05T17:55:37.132Z,20.77
2018-11-05T17:58:05.696Z,19.63
2018-11-05T18:00:33.971Z,20.13
2018-11-05T18:03:02.476Z,20.70
2018-11-05T18:05:30.800Z,20.10
2018-11-05T18:07:59.184Z,20.37
2018-11-05T18:10:27.525Z,21.10
2018-11-05T18:12:55.972Z,19.87
2018-11-05T18:15:24.402Z,21.00
2018-11-05T18:17:53.253Z,22.17
2018-11-05T18:20:22.277Z,25.07
2018-11-05T18:22:50.724Z,23.80
2018-11-05T18:25:20.008Z,22.63
2018-11-05T18:27:48.411Z,24.23
2018-11-05T18:30:17.978Z,24.83
2018-11-05T18:32:46.387Z,24.97
2018-11-05T18:35:15.371Z,25.03
2018-11-05T18:37:45.027Z,24.77
2018-11-05T18:40:14.560Z,23.90
2018-11-05T18:42:43.483Z,23.20
2018-11-05T18:45:12.174Z,23.23
2018-11-05T18:47:40.491Z,22.37
2018-11-05T18:50:10.732Z,27.00
2018-11-05T18:52:39.007Z,24.80
2018-11-05T18:55:08.962Z,25.77
2018-11-05T18:57:37.766Z,24.23
2018-11-05T19:00:10.548Z,23.73
2018-11-05T19:02:38.939Z,24.00
2018-11-05T19:05:07.221Z,24.90
2018-11-05T19:07:35.576Z,22.23
2018-11-05T19:10:03.894Z,24.20
2018-11-05T19:12:32.505Z,23.57
2018-11-05T19:15:00.841Z,21.97
2018-11-05T19:17:29.109Z,22.40
2018-11-05T19:19:57.644Z,24.20
2018-11-05T19:22:26.073Z,22.90
2018-11-05T19:24:54.290Z,23.00
2018-11-05T19:27:22.606Z,23.43
2018-11-05T19:29:51.724Z,23.37
2018-11-05T19:32:20.064Z,23.50
2018-11-05T19:34:48.554Z,24.10
2018-11-05T19:37:16.902Z,23.13
2018-11-05T19:39:45.437Z,24.50
2018-11-05T19:42:13.801Z,24.27
2018-11-05T19:44:42.196Z,25.87
2018-11-05T19:47:10.487Z,24.57
2018-11-05T19:49:38.954Z,24.67
2018-11-05T19:52:07.231Z,24.30
2018-11-05T19:54:35.710Z,25.47
2018-11-05T19:57:04.997Z,24.93
2018-11-05T19:59:33.289Z,24.13
2018-11-05T20:02:01.679Z,24.03
2018-11-05T20:04:30.193Z,25.50
2018-11-05T20:07:00.598Z,24.20
2018-11-05T20:09:28.964Z,26.03
2018-11-05T20:11:57.372Z,24.90
2018-11-05T20:14:25.775Z,25.90
2018-11-05T20:16:54.070Z,24.90
2018-11-05T20:19:22.491Z,24.67
2018-11-05T20:21:50.768Z,25.27
2018-11-05T20:24:19.091Z,26.67
2018-11-05T20:26:47.414Z,27.17
2018-11-05T20:29:17.713Z,26.30
2018-11-05T20:31:46.468Z,26.17
2018-11-05T20:34:15.015Z,25.60
2018-11-05T20:36:43.009Z,26.23
2018-11-05T20:39:12.083Z,25.40
2018-11-05T20:41:40.738Z,24.07
2018-11-05T20:44:10.144Z,23.40
2018-11-05T20:46:43.278Z,23.67
2018-11-05T20:49:11.588Z,23.27
2018-11-05T20:51:39.908Z,23.43
2018-11-05T20:54:08.252Z,25.17
2018-11-05T20:56:36.610Z,25.43
2018-11-05T20:59:05.060Z,24.90
2018-11-05T21:01:34.093Z,25.90
2018-11-05T21:04:02.380Z,25.90
2018-11-05T21:06:30.659Z,24.30
2018-11-05T21:08:59.070Z,24.00
2018-11-05T21:11:27.374Z,23.93
2018-11-05T21:13:56.010Z,24.57
2018-11-05T21:16:24.907Z,27.87
2018-11-05T21:18:53.179Z,25.53
2018-11-05T21:21:21.569Z,24.30
2018-11-05T21:23:49.770Z,24.50
2018-11-05T21:26:18.107Z,25.03
2018-11-05T21:28:46.428Z,25.20
2018-11-05T21:31:14.752Z,25.00
2018-11-05T21:33:46.640Z,25.83
2018-11-05T21:36:15.069Z,24.13
2018-11-05T21:38:43.406Z,23.00
2018-11-05T21:41:11.676Z,24.10
2018-11-05T21:43:40.112Z,22.73
2018-11-05T21:46:09.308Z,23.93
2018-11-05T21:48:39.143Z,25.07
2018-11-05T21:51:07.450Z,25.57
2018-11-05T21:53:35.844Z,26.93
2018-11-05T21:56:04.195Z,26.20
2018-11-05T21:58:32.541Z,25.23
2018-11-05T22:01:00.813Z,24.80
2018-11-05T22:03:29.275Z,25.53
2018-11-05T22:05:57.496Z,24.00
2018-11-05T22:08:28.624Z,23.47
2018-11-05T22:10:56.990Z,22.97
2018-11-05T22:13:25.285Z,23.40
2018-11-05T22:15:53.718Z,24.63
2018-11-05T22:18:22.984Z,22.97
2018-11-05T22:20:51.271Z,23.43
2018-11-05T22:23:19.720Z,23.93
2018-11-05T22:25:48.116Z,23.20
2018-11-05T22:28:16.545Z,22.50
2018-11-05T22:30:45.114Z,22.53
2018-11-05T22:33:13.494Z,23.13
2018-11-05T22:35:41.857Z,22.07
2018-11-05T22:38:10.123Z,22.00
2018-11-05T22:40:38.468Z,22.47
2018-11-05T22:43:06.736Z,24.37
2018-11-05T22:45:35.246Z,24.77
2018-11-05T22:48:03.571Z,23.77
2018-11-05T22:50:31.987Z,24.73
2018-11-05T22:53:00.150Z,25.57
2018-11-05T22:55:28.462Z,24.33
2018-11-05T22:57:56.764Z,24.73
2018-11-05T23:00:30.472Z,24.47
2018-11-05T23:03:04.120Z,24.27
2018-11-05T23:05:32.446Z,23.13
2018-11-05T23:08:00.795Z,22.53
2018-11-05T23:10:29.125Z,22.73
2018-11-05T23:12:57.513Z,23.03
2018-11-05T23:15:25.788Z,22.83
2018-11-05T23:17:54.149Z,23.37
2018-11-05T23:20:22.411Z,22.63
2018-11-05T23:22:50.770Z,23.87
2018-11-05T23:25:19.920Z,23.03
2018-11-05T23:27:48.210Z,27.10
2018-11-05T23:30:16.509Z,24.73
2018-11-05T23:32:44.779Z,24.70
2018-11-05T23:35:13.055Z,23.07
2018-11-05T23:37:42.010Z,24.50
2018-11-05T23:40:10.487Z,24.17
2018-11-05T23:42:39.361Z,23.80
2018-11-05T23:45:10.000Z,23.30
2018-11-05T23:47:38.549Z,23.77
2018-11-05T23:50:07.260Z,26.50
2018-11-05T23:52:35.744Z,24.60
2018-11-05T23:55:04.127Z,23.43
2018-11-05T23:57:32.591Z,23.07
